createdAt,value
2018-12-11T00:01:42.480Z,101301.70
2018-12-11T00:04:10.724Z,101298.12
2018-12-11T00:06:38.974Z,101294.38
2018-12-11T00:09:07.380Z,101304.86
2018-12-11T00:11:35.798Z,101302.88
2018-12-11T00:14:04.116Z,101304.66
2018-12-11T00:16:32.379Z,101306.94
2018-12-11T00:19:00.628Z,101304.02
2018-12-11T00:21:28.999Z,101299.77
2018-12-11T00:23:57.256Z,101296.66
2018-12-11T00:26:25.491Z,101302.71
2018-12-11T00:28:53.768Z,101304.34
2018-12-11T00:31:22.115Z,101307.92
2018-12-11T00:33:50.444Z,101299.42
2018-12-11T00:36:18.699Z,101297.81
2018-12-11T00:38:46.906Z,101303.40
2018-12-11T00:41:15.137Z,101291.94
2018-12-11T00:43:43.380Z,101298.80
2018-12-11T00:46:11.711Z,101305.34
2018-12-11T00:48:40.005Z,101305.01
2018-12-11T00:51:08.291Z,101302.39
2018-12-11T00:53:36.570Z,101310.56
2018-12-11T00:56:04.881Z,101303.84
2018-12-11T00:58:33.110Z,101298.63
2018-12-11T01:01:01.423Z,101307.28
2018-12-11T02:30:49.865Z,101390.47
2018-12-11T02:33:18.323Z,101396.35
2018-12-11T02:35:46.815Z,101395.84
2018-12-11T02:40:53.961Z,101389.82
2018-12-11T02:43:22.570Z,101388.02
2018-12-11T02:45:51.101Z,101394.22
2018-12-11T02:48:19.718Z,101394.22
2018-12-11T02:50:48.275Z,101398.80
2018-12-11T02:53:16.857Z,101394.06
2018-12-11T03:04:20.840Z,101400.45
2018-12-11T03:06:49.420Z,101398.16
2018-12-11T03:09:18.018Z,101406.17
2018-12-11T03:11:46.594Z,101400.78
2018-12-11T03:14:15.223Z,101402.91
2018-12-11T03:16:43.787Z,101404.05
2018-12-11T03:27:37.824Z,101407.11
2018-12-11T03:30:06.712Z,101410.06
2018-12-11T03:32:35.268Z,101417.41
2018-12-11T03:35:03.921Z,101410.70
2018-12-11T03:37:32.487Z,101426.41
2018-12-11T03:40:01.017Z,101424.80
2018-12-11T03:42:29.553Z,101426.41
2018-12-11T03:44:58.100Z,101431.97
2018-12-11T03:47:26.701Z,101435.23
2018-12-11T03:49:55.308Z,101446.68
2018-12-11T04:00:56.556Z,101443.41
2018-12-11T04:03:24.803Z,101443.73
2018-12-11T04:05:53.011Z,101450.61
2018-12-11T04:08:21.302Z,101449.30
2018-12-11T04:10:50.119Z,101445.87
2018-12-11T04:13:18.414Z,101449.63
2018-12-11T04:15:46.607Z,101452.08
2018-12-11T04:18:14.940Z,101450.94
2018-12-11T04:20:43.193Z,101444.23
2018-12-11T04:23:11.439Z,101452.41
2018-12-11T04:25:39.681Z,101459.73
2018-12-11T04:28:07.913Z,101459.08
2018-12-11T04:30:36.118Z,101459.41
2018-12-11T04:33:04.353Z,101471.17
2018-12-11T04:35:32.554Z,101472.16
2018-12-11T04:38:00.784Z,101478.69
2018-12-11T04:40:29.131Z,101470.84
2018-12-11T04:42:57.347Z,101480.82
2018-12-11T04:45:25.662Z,101481.47
2018-12-11T04:47:53.885Z,101480.66
2018-12-11T04:50:22.117Z,101473.13
2018-12-11T04:52:50.380Z,101483.92
2018-12-11T04:55:18.633Z,101485.55
2018-12-11T04:57:46.881Z,101489.15
2018-12-11T05:00:15.107Z,101500.10
2018-12-11T05:02:43.315Z,101496.67
2018-12-11T05:05:11.522Z,101495.86
2018-12-11T05:07:39.729Z,101502.23
2018-12-11T05:10:08.355Z,101505.17
2018-12-11T05:12:36.571Z,101501.73
2018-12-11T05:15:05.231Z,101501.58
2018-12-11T05:17:33.495Z,101501.73
2018-12-11T05:20:01.776Z,101511.70
2018-12-11T05:22:29.999Z,101503.53
2018-12-11T05:24:58.419Z,101505.83
2018-12-11T05:27:26.651Z,101508.27
2018-12-11T05:29:54.869Z,101518.69
2018-12-11T05:32:23.135Z,101516.73
2018-12-11T05:34:51.389Z,101522.27
2018-12-11T05:37:19.809Z,101525.70
2018-12-11T05:39:48.064Z,101526.70
2018-12-11T05:42:16.269Z,101519.49
2018-12-11T05:44:44.581Z,101517.21
2018-12-11T05:47:12.783Z,101517.74
2018-12-11T05:49:41.103Z,101520.95
2018-12-11T05:52:09.313Z,101522.75
2018-12-11T05:54:37.518Z,101527.66
2018-12-11T05:57:05.723Z,101520.81
2018-12-11T05:59:33.959Z,101524.07
2018-12-11T06:02:02.194Z,101531.26
2018-12-11T06:04:30.472Z,101541.55
2018-12-11T06:06:58.691Z,101541.06
2018-12-11T06:09:26.930Z,101545.31
2018-12-11T06:11:55.215Z,101541.89
2018-12-11T06:14:23.435Z,101543.02
2018-12-11T06:16:51.653Z,101544.00
2018-12-11T06:19:19.873Z,101548.25
2018-12-11T06:21:48.127Z,101549.86
2018-12-11T06:24:16.368Z,101549.20
2018-12-11T06:26:44.630Z,101551.13
2018-12-11T06:29:12.885Z,101555.11
2018-12-11T06:31:41.126Z,101553.30
2018-12-11T06:34:09.344Z,101558.53
2018-12-11T06:36:37.542Z,101554.45
2018-12-11T06:39:06.982Z,101565.24
2018-12-11T06:41:35.266Z,101564.41
2018-12-11T06:44:03.543Z,101575.67
2018-12-11T06:46:31.772Z,101577.64
2018-12-11T06:49:00.044Z,101573.56
2018-12-11T06:51:28.294Z,101575.95
2018-12-11T06:53:56.526Z,101580.70
2018-12-11T06:56:24.860Z,101578.25
2018-12-11T06:58:53.117Z,101589.16
2018-12-11T07:01:21.379Z,101590.31
2018-12-11T07:03:49.639Z,101607.94
2018-12-11T07:06:17.876Z,101605.33
2018-12-11T07:08:46.177Z,101612.21
2018-12-11T07:11:14.394Z,101619.87
2018-12-11T07:13:42.644Z,101621.52
2018-12-11T07:16:10.941Z,101616.64
2018-12-11T07:18:39.176Z,101614.01
2018-12-11T07:21:07.389Z,101615.47
2018-12-11T07:23:35.605Z,101619.70
2018-12-11T07:26:04.003Z,101620.34
2018-12-11T07:28:32.207Z,101620.68
2018-12-11T07:31:00.443Z,101623.47
2018-12-11T07:33:28.658Z,101629.34
2018-12-11T07:35:56.912Z,101622.56
2018-12-11T07:38:25.241Z,101635.56
2018-12-11T07:40:53.532Z,101636.36
2018-12-11T07:43:21.807Z,101640.63
2018-12-11T07:45:50.177Z,101641.59
2018-12-11T07:48:18.451Z,101635.88
2018-12-11T07:50:46.677Z,101643.27
2018-12-11T07:53:14.960Z,101637.37
2018-12-11T07:55:43.197Z,101650.29
2018-12-11T07:58:11.459Z,101644.73
2018-12-11T08:00:39.738Z,101651.09
2018-12-11T08:03:11.105Z,101652.55
2018-12-11T08:05:39.866Z,101657.94
2018-12-11T08:08:10.278Z,101659.11
2018-12-11T08:10:38.568Z,101664.80
2018-12-11T08:13:06.905Z,101666.27
2018-12-11T08:15:35.147Z,101674.26
2018-12-11T08:18:03.399Z,101671.98
2018-12-11T08:20:31.672Z,101676.89
2018-12-11T08:22:59.935Z,101677.03
2018-12-11T08:25:28.183Z,101683.56
2018-12-11T08:27:56.408Z,101685.73
2018-12-11T08:30:24.642Z,101685.66
2018-12-11T08:32:52.919Z,101697.55
2018-12-11T08:35:21.162Z,101693.86
2018-12-11T08:37:49.540Z,101696.32
2018-12-11T08:40:17.815Z,101699.88
2018-12-11T08:42:46.093Z,101704.31
2018-12-11T08:45:14.326Z,101712.49
2018-12-11T08:47:42.563Z,101710.01
2018-12-11T08:50:10.840Z,101712.52
2018-12-11T08:52:39.120Z,101718.69
2018-12-11T08:55:07.432Z,101718.03
2018-12-11T08:57:35.750Z,101718.88
2018-12-11T09:00:04.469Z,101721.17
2018-12-11T09:02:32.822Z,101722.00
2018-12-11T09:05:01.084Z,101723.50
2018-12-11T09:07:29.338Z,101725.94
2018-12-11T09:09:57.569Z,101733.53
2018-12-11T09:12:25.814Z,101728.71
2018-12-11T09:14:54.096Z,101731.99
2018-12-11T09:17:22.334Z,101732.38
2018-12-11T09:19:50.657Z,101730.12
2018-12-11T09:22:18.952Z,101737.48
2018-12-11T09:24:47.256Z,101741.53
2018-12-11T09:27:15.648Z,101731.23
2018-12-11T09:29:43.998Z,101746.30
2018-12-11T09:32:12.223Z,101744.77
2018-12-11T09:34:40.456Z,101747.88
2018-12-11T09:37:09.170Z,101749.25
2018-12-11T09:39:37.507Z,101753.40
2018-12-11T09:42:07.363Z,101755.55
2018-12-11T09:44:36.099Z,101759.12
2018-12-11T09:47:04.403Z,101758.96
2018-12-11T09:49:32.751Z,101764.51
2018-12-11T09:52:01.005Z,101759.94
2018-12-11T09:54:29.243Z,101765.26
2018-12-11T09:56:58.039Z,101771.20
2018-12-11T09:59:26.410Z,101768.13
2018-12-11T10:01:54.713Z,101766.06
2018-12-11T10:04:22.920Z,101775.91
2018-12-11T10:06:51.142Z,101772.36
2018-12-11T10:09:19.528Z,101778.21
2018-12-11T10:11:48.024Z,101771.88
2018-12-11T10:14:16.345Z,101767.47
2018-12-11T10:16:44.583Z,101770.09
2018-12-11T10:19:12.815Z,101763.72
2018-12-11T10:21:41.188Z,101767.53
2018-12-11T10:24:09.465Z,101768.69
2018-12-11T10:26:37.732Z,101770.82
2018-12-11T10:29:06.271Z,101772.55
2018-12-11T10:31:34.559Z,101775.99
2018-12-11T10:34:02.830Z,101777.47
2018-12-11T10:36:31.113Z,101777.50
2018-12-11T10:38:59.346Z,101772.75
2018-12-11T10:41:27.575Z,101776.34
2018-12-11T10:43:56.189Z,101778.84
2018-12-11T10:46:24.420Z,101778.17
2018-12-11T10:48:52.662Z,101772.92
2018-12-11T10:51:20.925Z,101774.59
2018-12-11T10:53:49.143Z,101772.77
2018-12-11T10:56:17.455Z,101772.30
2018-12-11T10:58:45.787Z,101778.82
2018-12-11T11:01:19.118Z,101781.95
2018-12-11T11:03:47.679Z,101783.75
2018-12-11T11:06:15.927Z,101785.72
2018-12-11T11:08:44.231Z,101788.19
2018-12-11T11:11:12.531Z,101786.72
2018-12-11T11:13:40.779Z,101788.02
2018-12-11T11:16:14.667Z,101793.91
2018-12-11T11:18:44.020Z,101787.03
2018-12-11T11:21:12.329Z,101790.14
2018-12-11T11:23:40.534Z,101789.64
2018-12-11T11:26:08.795Z,101792.92
2018-12-11T11:28:37.090Z,101792.94
2018-12-11T11:31:05.506Z,101797.67
2018-12-11T11:33:33.946Z,101796.70
2018-12-11T11:36:02.287Z,101810.92
2018-12-11T11:38:30.537Z,101808.14
2018-12-11T11:40:58.759Z,101804.20
2018-12-11T11:43:26.981Z,101804.70
2018-12-11T11:45:55.213Z,101803.03
2018-12-11T11:48:23.510Z,101803.51
2018-12-11T11:50:51.746Z,101807.93
2018-12-11T11:53:20.104Z,101801.83
2018-12-11T11:55:48.323Z,101811.86
2018-12-11T11:58:16.568Z,101807.73
2018-12-11T12:00:44.940Z,101811.65
2018-12-11T12:03:13.198Z,101818.41
2018-12-11T12:05:41.505Z,101822.47
2018-12-11T12:08:09.750Z,101823.61
2018-12-11T12:10:38.199Z,101827.05
2018-12-11T12:13:06.415Z,101820.17
2018-12-11T12:15:34.617Z,101826.55
2018-12-11T12:18:02.850Z,101819.67
2018-12-11T12:20:31.133Z,101819.67
2018-12-11T12:22:59.463Z,101824.58
2018-12-11T12:25:28.268Z,101829.18
2018-12-11T12:27:56.506Z,101835.73
2018-12-11T12:30:26.630Z,101839.97
2018-12-11T12:32:54.874Z,101843.89
2018-12-11T12:35:23.140Z,101843.24
2018-12-11T12:37:51.411Z,101844.71
2018-12-11T12:40:19.620Z,101845.69
2018-12-11T12:42:47.840Z,101856.62
2018-12-11T12:45:16.047Z,101855.52
2018-12-11T12:47:44.353Z,101853.51
2018-12-11T12:50:12.569Z,101859.63
2018-12-11T12:52:40.881Z,101863.23
2018-12-11T12:55:09.197Z,101866.82
2018-12-11T12:57:37.438Z,101869.23
2018-12-11T13:00:08.271Z,101874.63
2018-12-11T13:02:36.502Z,101874.78
2018-12-11T13:05:05.435Z,101873.31
2018-12-11T13:07:33.747Z,101871.02
2018-12-11T13:10:02.078Z,101871.82
2018-12-11T13:12:30.840Z,101874.75
2018-12-11T13:14:59.102Z,101877.37
2018-12-11T13:17:27.342Z,101882.27
2018-12-11T13:19:55.568Z,101882.48
2018-12-11T13:22:23.909Z,101883.09
2018-12-11T13:24:52.162Z,101892.25
2018-12-11T13:27:26.184Z,101891.07
2018-12-11T13:29:54.390Z,101889.63
2018-12-11T13:32:22.652Z,101896.52
2018-12-11T13:34:50.929Z,101897.44
2018-12-11T13:37:19.272Z,101896.11
2018-12-11T13:39:47.523Z,101899.06
2018-12-11T13:42:15.868Z,101907.25
2018-12-11T13:44:44.087Z,101906.33
2018-12-11T13:47:12.509Z,101908.08
2018-12-11T13:49:40.755Z,101908.89
2018-12-11T13:52:08.957Z,101905.19
2018-12-11T13:54:37.271Z,101909.23
2018-12-11T13:57:05.580Z,101906.66
2018-12-11T13:59:33.818Z,101913.53
2018-12-11T14:02:02.040Z,101915.13
2018-12-11T14:04:30.292Z,101916.00
2018-12-11T14:06:58.615Z,101922.23
2018-12-11T14:09:32.363Z,101924.66
2018-12-11T14:12:00.688Z,101924.61
2018-12-11T14:14:28.908Z,101925.34
2018-12-11T14:16:57.115Z,101933.38
2018-12-11T14:19:25.443Z,101944.83
2018-12-11T14:21:53.746Z,101938.44
2018-12-11T14:24:22.011Z,101936.80
2018-12-11T14:26:50.295Z,101938.58
2018-12-11T14:29:18.632Z,101944.63
2018-12-11T14:31:47.084Z,101944.32
2018-12-11T14:34:15.330Z,101944.97
2018-12-11T14:36:43.699Z,101944.25
2018-12-11T14:39:12.182Z,101951.13
2018-12-11T14:41:40.392Z,101952.18
2018-12-11T14:44:08.682Z,101951.03
2018-12-11T14:46:37.026Z,101955.72
2018-12-11T14:49:05.334Z,101955.29
2018-12-11T14:51:33.612Z,101954.06
2018-12-11T14:54:02.212Z,101954.23
2018-12-11T14:56:30.575Z,101957.19
2018-12-11T14:58:58.788Z,101959.94
2018-12-11T15:01:27.068Z,101966.02
2018-12-11T15:03:55.314Z,101960.61
2018-12-11T15:06:23.553Z,101959.96
2018-12-11T15:08:51.958Z,101957.03
2018-12-11T15:11:20.183Z,101967.97
2018-12-11T15:13:48.410Z,101961.58
2018-12-11T15:16:17.077Z,101962.87
2018-12-11T15:18:45.359Z,101964.55
2018-12-11T15:21:13.590Z,101969.46
2018-12-11T15:23:41.848Z,101970.48
2018-12-11T15:26:10.119Z,101971.10
2018-12-11T15:28:38.394Z,101971.10
2018-12-11T15:31:11.115Z,101970.77
2018-12-11T15:33:39.346Z,101968.16
2018-12-11T15:36:07.661Z,101973.56
2018-12-11T15:38:35.891Z,101974.03
2018-12-11T15:41:04.325Z,101974.70
2018-12-11T15:43:32.803Z,101977.62
2018-12-11T15:46:01.219Z,101977.30
2018-12-11T15:48:29.704Z,101979.22
2018-12-11T15:50:58.070Z,101986.97
2018-12-11T15:53:27.015Z,101987.13
2018-12-11T15:55:55.248Z,101981.53
2018-12-11T15:58:25.045Z,101979.91
2018-12-11T16:00:53.812Z,101981.69
2018-12-11T16:03:22.146Z,101985.30
2018-12-11T16:05:50.420Z,101985.13
2018-12-11T16:08:18.704Z,101984.12
2018-12-11T16:10:46.932Z,101983.40
2018-12-11T16:13:15.272Z,101987.39
2018-12-11T16:15:43.699Z,101980.38
2018-12-11T16:18:11.984Z,101983.64
2018-12-11T16:20:40.344Z,101981.84
2018-12-11T16:23:08.563Z,101985.77
2018-12-11T16:25:36.823Z,101988.70
2018-12-11T16:28:05.059Z,101991.98
2018-12-11T16:30:33.337Z,101998.52
2018-12-11T16:33:01.746Z,102002.42
2018-12-11T16:35:29.977Z,102003.92
2018-12-11T16:37:58.402Z,102003.94
2018-12-11T16:40:26.666Z,102003.77
2018-12-11T16:42:54.939Z,102008.97
2018-12-11T16:45:23.285Z,102008.02
2018-12-11T16:47:51.673Z,102009.36
2018-12-11T16:50:19.985Z,102020.63
2018-12-11T16:52:49.245Z,102018.26
2018-12-11T16:55:17.544Z,102019.63
2018-12-11T16:57:45.761Z,102015.30
2018-12-11T17:00:14.806Z,102018.90
2018-12-11T17:02:43.165Z,102022.06
2018-12-11T17:05:11.480Z,102026.94
2018-12-11T17:07:39.720Z,102030.62
2018-12-11T17:10:08.175Z,102040.02
2018-12-11T17:12:37.851Z,102040.84
2018-12-11T17:15:10.906Z,102046.23
2018-12-11T17:17:40.552Z,102050.80
2018-12-11T17:20:09.330Z,102051.90
2018-12-11T17:22:38.372Z,102055.95
2018-12-11T17:25:06.719Z,102051.20
2018-12-11T17:27:35.011Z,102050.63
2018-12-11T17:30:03.625Z,102062.64
2018-12-11T17:32:31.967Z,102059.33
2018-12-11T17:35:00.326Z,102063.47
2018-12-11T17:37:28.585Z,102058.66
2018-12-11T17:39:56.810Z,102070.11
2018-12-11T17:42:44.304Z,102069.04
2018-12-11T17:45:12.584Z,102074.37
2018-12-11T17:47:40.905Z,102073.73
2018-12-11T17:50:09.467Z,102080.09
2018-12-11T17:52:37.748Z,102078.26
2018-12-11T17:55:06.197Z,102079.75
2018-12-11T17:57:34.790Z,102089.73
2018-12-11T18:00:03.393Z,102095.09
2018-12-11T18:02:35.835Z,102100.81
2018-12-11T18:05:05.233Z,102099.13
2018-12-11T18:07:33.495Z,102114.98
2018-12-11T18:10:01.971Z,102111.10
2018-12-11T18:12:30.309Z,102114.39
2018-12-11T18:14:58.676Z,102118.61
2018-12-11T18:17:27.273Z,102112.45
2018-12-11T18:19:55.789Z,102115.06
2018-12-11T18:22:24.151Z,102111.97
2018-12-11T18:24:52.468Z,102117.02
2018-12-11T18:27:20.787Z,102123.25
2018-12-11T18:29:49.061Z,102125.88
2018-12-11T18:32:17.529Z,102121.98
2018-12-11T18:34:48.206Z,102122.36
2018-12-11T18:37:16.455Z,102124.67
2018-12-11T18:39:44.898Z,102126.99
2018-12-11T18:42:13.199Z,102125.16
2018-12-11T18:44:41.628Z,102122.69
2018-12-11T18:47:09.947Z,102127.59
2018-12-11T18:49:38.347Z,102127.78
2018-12-11T18:52:06.816Z,102125.69
2018-12-11T18:54:35.369Z,102125.23
2018-12-11T18:57:03.679Z,102138.28
2018-12-11T18:59:32.267Z,102137.35
2018-12-11T19:02:00.616Z,102139.15
2018-12-11T19:04:29.003Z,102140.56
2018-12-11T19:06:57.530Z,102139.86
2018-12-11T19:09:25.896Z,102145.13
2018-12-11T19:11:54.192Z,102144.94
2018-12-11T19:14:22.496Z,102153.02
2018-12-11T19:16:50.845Z,102150.70
2018-12-11T19:19:19.281Z,102153.91
2018-12-11T19:21:47.614Z,102155.41
2018-12-11T19:24:30.930Z,102160.39
2018-12-11T19:26:59.254Z,102161.20
2018-12-11T19:29:27.924Z,102169.31
2018-12-11T19:34:48.857Z,102167.03
2018-12-11T19:40:10.530Z,102171.66
2018-12-11T19:42:39.719Z,102165.61
2018-12-11T19:45:08.343Z,102168.73
2018-12-11T19:47:36.924Z,102168.44
2018-12-11T19:50:06.037Z,102164.28
2018-12-11T19:52:39.663Z,102164.47
2018-12-11T19:55:05.181Z,102170.42
2018-12-11T19:57:33.735Z,102174.42
2018-12-11T20:00:02.075Z,102174.69
2018-12-11T20:02:30.616Z,102173.53
2018-12-11T20:04:59.148Z,102175.81
2018-12-11T20:07:27.482Z,102182.49
2018-12-11T20:10:01.335Z,102183.56
2018-12-11T20:12:30.030Z,102185.16
2018-12-11T20:15:04.730Z,102189.87
2018-12-11T20:17:31.385Z,102193.20
2018-12-11T20:20:00.568Z,102199.45
2018-12-11T20:22:30.045Z,102195.70
2018-12-11T20:24:59.417Z,102200.67
2018-12-11T20:27:28.683Z,102211.00
2018-12-11T20:29:58.064Z,102213.95
2018-12-11T20:32:27.259Z,102196.78
2018-12-11T20:34:56.527Z,102203.33
2018-12-11T20:37:26.473Z,102210.35
2018-12-11T20:39:56.485Z,102211.33
2018-12-11T20:42:26.198Z,102211.33
2018-12-11T20:44:55.360Z,102211.33
2018-12-11T20:47:24.760Z,102210.64
2018-12-11T20:49:54.353Z,102209.14
2018-12-11T20:52:23.859Z,102209.97
2018-12-11T20:54:52.708Z,102213.08
2018-12-11T20:57:21.278Z,102216.33
2018-12-11T20:59:50.583Z,102216.33
2018-12-11T21:02:20.110Z,102211.86
2018-12-11T21:04:49.272Z,102216.89
2018-12-11T21:07:18.754Z,102228.34
2018-12-11T21:09:48.243Z,102225.77
2018-12-11T21:12:17.862Z,102233.96
2018-12-11T21:14:46.408Z,102236.03
2018-12-11T21:17:15.542Z,102229.30
2018-12-11T21:19:44.096Z,102235.47
2018-12-11T21:22:12.760Z,102244.14
2018-12-11T21:24:41.075Z,102239.00
2018-12-11T21:27:09.486Z,102239.14
2018-12-11T21:29:37.934Z,102235.50
2018-12-11T21:32:06.482Z,102241.07
2018-12-11T21:34:34.983Z,102240.45
2018-12-11T21:37:03.306Z,102241.70
2018-12-11T21:39:31.712Z,102247.47
2018-12-11T21:42:00.183Z,102256.85
2018-12-11T21:44:29.206Z,102253.89
2018-12-11T21:46:57.785Z,102256.91
2018-12-11T21:49:26.138Z,102254.63
2018-12-11T21:51:54.524Z,102263.05
2018-12-11T21:54:23.547Z,102256.37
2018-12-11T21:56:52.227Z,102251.50
2018-12-11T21:59:20.618Z,102262.22
2018-12-11T22:01:49.012Z,102264.44
2018-12-11T22:04:17.616Z,102264.58
2018-12-11T22:06:45.940Z,102271.94
2018-12-11T22:09:14.465Z,102275.44
2018-12-11T22:11:42.778Z,102271.72
2018-12-11T22:14:11.199Z,102279.14
2018-12-11T22:16:39.496Z,102273.42
2018-12-11T22:19:07.815Z,102278.03
2018-12-11T22:21:36.208Z,102276.47
2018-12-11T22:24:04.683Z,102275.02
2018-12-11T22:26:33.066Z,102281.56
2018-12-11T22:29:01.397Z,102280.25
2018-12-11T22:31:29.732Z,102283.01
2018-12-11T22:33:58.070Z,102287.27
2018-12-11T22:36:26.427Z,102291.81
2018-12-11T22:38:54.823Z,102289.45
2018-12-11T22:41:23.176Z,102287.61
2018-12-11T22:43:51.406Z,102292.02
2018-12-11T22:46:19.762Z,102281.47
2018-12-11T22:48:48.361Z,102280.45
2018-12-11T22:51:16.719Z,102289.00
2018-12-11T22:53:45.031Z,102295.11
2018-12-11T22:56:13.339Z,102296.92
2018-12-11T22:58:41.606Z,102292.98
2018-12-11T23:01:10.177Z,102290.45
2018-12-11T23:03:38.513Z,102294.64
2018-12-11T23:06:07.280Z,102298.41
2018-12-11T23:08:35.767Z,102301.98
2018-12-11T23:11:04.256Z,102298.95
2018-12-11T23:13:32.500Z,102304.70
2018-12-11T23:16:00.816Z,102308.23
2018-12-11T23:18:35.655Z,102307.77
2018-12-11T23:21:03.933Z,102307.20
2018-12-11T23:23:32.427Z,102314.43
2018-12-11T23:26:00.752Z,102311.67
2018-12-11T23:28:29.031Z,102316.42
2018-12-11T23:30:57.439Z,102325.30
2018-12-11T23:33:25.882Z,102317.04
2018-12-11T23:35:54.168Z,102318.00
2018-12-11T23:38:22.587Z,102313.60
2018-12-11T23:40:51.051Z,102325.50
2018-12-11T23:43:19.323Z,102323.92
2018-12-11T23:45:47.728Z,102321.65
2018-12-11T23:48:15.961Z,102323.50
2018-12-11T23:50:44.227Z,102322.48
2018-12-11T23:53:12.520Z,102322.78
2018-12-11T23:55:40.750Z,102320.64
2018-12-11T23:58:09.680Z,102328.66
